sensor_id;sensor_type;location;lat;lon;timestamp;pressure;altitude;pressure_sealevel;temperature;humidity
77574;BME280;66710;48.868;9.080;2024-03-02T00:00:11;96870.72;;;5.57;84.69
77574;BME280;66710;48.868;9.080;2024-03-02T00:05:07;96866.06;;;5.36;85.08
77574;BME280;66710;48.868;9.080;2024-03-02T00:07:33;96877.50;;;5.48;84.37
77574;BME280;66710;48.868;9.080;2024-03-02T00:09:59;96878.81;;;5.34;85.16
77574;BME280;66710;48.868;9.080;2024-03-02T00:12:24;96881.91;;;5.43;84.54
77574;BME280;66710;48.868;9.080;2024-03-02T00:14:51;96869.19;;;5.73;82.48
77574;BME280;66710;48.868;9.080;2024-03-02T00:17:24;96876.94;;;5.75;82.73
77574;BME280;66710;48.868;9.080;2024-03-02T00:19:51;96874.81;;;5.60;83.73
77574;BME280;66710;48.868;9.080;2024-03-02T00:22:16;96885.56;;;5.65;82.56
77574;BME280;66710;48.868;9.080;2024-03-02T00:24:42;96874.81;;;5.60;82.81
77574;BME280;66710;48.868;9.080;2024-03-02T00:27:07;96886.28;;;5.49;82.90
77574;BME280;66710;48.868;9.080;2024-03-02T00:29:36;96895.22;;;5.43;83.52
77574;BME280;66710;48.868;9.080;2024-03-02T00:32:02;96879.81;;;5.33;84.02
77574;BME280;66710;48.868;9.080;2024-03-02T00:34:27;96888.72;;;5.38;83.87
77574;BME280;66710;48.868;9.080;2024-03-02T00:36:57;96882.41;;;5.28;83.93
77574;BME280;66710;48.868;9.080;2024-03-02T00:39:22;96876.94;;;5.34;84.36
77574;BME280;66710;48.868;9.080;2024-03-02T00:41:48;96880.75;;;5.27;84.39
77574;BME280;66710;48.868;9.080;2024-03-02T00:44:15;96879.94;;;5.26;84.06
77574;BME280;66710;48.868;9.080;2024-03-02T00:46:42;96883.66;;;5.37;83.99
77574;BME280;66710;48.868;9.080;2024-03-02T00:49:21;96884.94;;;5.34;84.19
77574;BME280;66710;48.868;9.080;2024-03-02T00:51:48;96883.22;;;5.28;84.00
77574;BME280;66710;48.868;9.080;2024-03-02T00:54:14;96897.91;;;5.31;83.66
77574;BME280;66710;48.868;9.080;2024-03-02T00:56:41;96883.66;;;5.25;84.02
77574;BME280;66710;48.868;9.080;2024-03-02T00:59:10;96884.94;;;5.34;83.41
77574;BME280;66710;48.868;9.080;2024-03-02T01:01:35;96881.13;;;5.19;84.15
77574;BME280;66710;48.868;9.080;2024-03-02T01:04:00;96875.56;;;5.08;84.95
77574;BME280;66710;48.868;9.080;2024-03-02T01:06:26;96882.84;;;5.36;83.64
77574;BME280;66710;48.868;9.080;2024-03-02T01:08:51;96886.31;;;5.37;83.18
77574;BME280;66710;48.868;9.080;2024-03-02T01:11:17;96885.72;;;5.47;83.07
77574;BME280;66710;48.868;9.080;2024-03-02T01:13:48;96886.19;;;5.44;83.34
77574;BME280;66710;48.868;9.080;2024-03-02T01:16:14;96888.38;;;5.47;83.05
77574;BME280;66710;48.868;9.080;2024-03-02T01:18:41;96883.19;;;5.40;83.14
77574;BME280;66710;48.868;9.080;2024-03-02T01:21:06;96881.41;;;5.46;82.96
77574;BME280;66710;48.868;9.080;2024-03-02T01:23:31;96877.13;;;5.45;82.98
77574;BME280;66710;48.868;9.080;2024-03-02T01:25:56;96881.00;;;5.25;84.22
77574;BME280;66710;48.868;9.080;2024-03-02T01:28:22;96879.25;;;5.31;84.32
77574;BME280;66710;48.868;9.080;2024-03-02T01:30:48;96876.25;;;5.27;84.14
77574;BME280;66710;48.868;9.080;2024-03-02T01:33:13;96878.34;;;5.14;84.67
77574;BME280;66710;48.868;9.080;2024-03-02T01:35:38;96876.25;;;5.16;84.33
77574;BME280;66710;48.868;9.080;2024-03-02T01:38:04;96864.81;;;4.92;85.26
77574;BME280;66710;48.868;9.080;2024-03-02T01:40:32;96858.69;;;4.79;84.85
77574;BME280;66710;48.868;9.080;2024-03-02T01:42:57;96860.19;;;4.87;84.46
77574;BME280;66710;48.868;9.080;2024-03-02T01:45:25;96856.38;;;4.83;84.97
77574;BME280;66710;48.868;9.080;2024-03-02T01:47:51;96859.72;;;4.90;84.87
77574;BME280;66710;48.868;9.080;2024-03-02T01:50:24;96857.66;;;4.92;84.74
77574;BME280;66710;48.868;9.080;2024-03-02T01:52:50;96859.16;;;5.00;84.65
77574;BME280;66710;48.868;9.080;2024-03-02T01:55:15;96859.16;;;4.88;84.39
77574;BME280;66710;48.868;9.080;2024-03-02T01:57:41;96858.69;;;4.79;85.04
77574;BME280;66710;48.868;9.080;2024-03-02T02:00:07;96868.19;;;4.87;84.78
77574;BME280;66710;48.868;9.080;2024-03-02T02:02:32;96866.09;;;4.77;85.15
77574;BME280;66710;48.868;9.080;2024-03-02T02:04:57;96853.72;;;4.71;85.07
77574;BME280;66710;48.868;9.080;2024-03-02T02:07:23;96859.41;;;4.75;85.34
77574;BME280;66710;48.868;9.080;2024-03-02T02:09:48;96853.72;;;4.71;85.66
77574;BME280;66710;48.868;9.080;2024-03-02T02:12:14;96856.38;;;4.71;85.90
77574;BME280;66710;48.868;9.080;2024-03-02T02:14:47;96845.50;;;4.61;85.94
77574;BME280;66710;48.868;9.080;2024-03-02T02:17:12;96847.56;;;4.47;86.59
77574;BME280;66710;48.868;9.080;2024-03-02T02:19:37;96844.31;;;4.34;87.31
77574;BME280;66710;48.868;9.080;2024-03-02T02:22:02;96846.94;;;4.22;87.45
77574;BME280;66710;48.868;9.080;2024-03-02T02:24:28;96848.47;;;4.29;87.76
77574;BME280;66710;48.868;9.080;2024-03-02T02:26:53;96846.50;;;4.37;87.10
77574;BME280;66710;48.868;9.080;2024-03-02T02:29:18;96853.81;;;4.53;87.20
77574;BME280;66710;48.868;9.080;2024-03-02T02:31:43;96847.00;;;4.57;86.48
77574;BME280;66710;48.868;9.080;2024-03-02T02:34:09;96844.34;;;4.45;86.54
77574;BME280;66710;48.868;9.080;2024-03-02T02:36:36;96840.75;;;4.51;86.44
77574;BME280;66710;48.868;9.080;2024-03-02T02:39:03;96838.44;;;4.55;86.41
77574;BME280;66710;48.868;9.080;2024-03-02T02:41:29;96836.00;;;4.65;85.90
77574;BME280;66710;48.868;9.080;2024-03-02T02:43:55;96835.56;;;4.68;85.66
77574;BME280;66710;48.868;9.080;2024-03-02T02:46:20;96833.34;;;4.53;86.27
77574;BME280;66710;48.868;9.080;2024-03-02T02:48:45;96824.44;;;4.48;86.49
77574;BME280;66710;48.868;9.080;2024-03-02T02:51:10;96819.72;;;4.50;86.38
77574;BME280;66710;48.868;9.080;2024-03-02T02:53:36;96819.81;;;4.55;85.92
77574;BME280;66710;48.868;9.080;2024-03-02T02:56:05;96824.69;;;4.46;86.03
77574;BME280;66710;48.868;9.080;2024-03-02T02:58:30;96824.31;;;4.54;86.07
77574;BME280;66710;48.868;9.080;2024-03-02T03:00:56;96828.84;;;4.54;86.19
77574;BME280;66710;48.868;9.080;2024-03-02T03:03:21;96829.31;;;4.51;86.35
77574;BME280;66710;48.868;9.080;2024-03-02T03:05:47;96831.25;;;4.55;86.33
77574;BME280;66710;48.868;9.080;2024-03-02T03:08:12;96817.88;;;4.50;86.09
77574;BME280;66710;48.868;9.080;2024-03-02T03:10:37;96831.38;;;4.49;86.58
77574;BME280;66710;48.868;9.080;2024-03-02T03:13:03;96826.84;;;4.49;86.36
77574;BME280;66710;48.868;9.080;2024-03-02T03:15:28;96826.97;;;4.43;86.43
77574;BME280;66710;48.868;9.080;2024-03-02T03:17:53;96828.16;;;4.47;86.15
77574;BME280;66710;48.868;9.080;2024-03-02T03:20:18;96826.53;;;4.46;86.36
77574;BME280;66710;48.868;9.080;2024-03-02T03:22:46;96833.94;;;4.44;86.92
77574;BME280;66710;48.868;9.080;2024-03-02T03:25:11;96830.34;;;4.50;86.65
77574;BME280;66710;48.868;9.080;2024-03-02T03:27:37;96835.41;;;4.40;86.52
77574;BME280;66710;48.868;9.080;2024-03-02T03:30:02;96841.31;;;4.42;86.34
77574;BME280;66710;48.868;9.080;2024-03-02T03:32:28;96831.69;;;4.29;86.84
77574;BME280;66710;48.868;9.080;2024-03-02T03:34:53;96834.13;;;4.30;86.99
77574;BME280;66710;48.868;9.080;2024-03-02T03:37:19;96837.69;;;4.24;87.29
77574;BME280;66710;48.868;9.080;2024-03-02T03:39:44;96832.06;;;4.33;86.68
77574;BME280;66710;48.868;9.080;2024-03-02T03:42:09;96828.47;;;4.27;86.93
77574;BME280;66710;48.868;9.080;2024-03-02T03:44:34;96828.69;;;4.25;86.92
77574;BME280;66710;48.868;9.080;2024-03-02T03:47:00;96817.34;;;4.18;86.81
77574;BME280;66710;48.868;9.080;2024-03-02T03:49:27;96821.97;;;4.11;87.34
77574;BME280;66710;48.868;9.080;2024-03-02T03:51:52;96823.53;;;4.00;87.29
77574;BME280;66710;48.868;9.080;2024-03-02T03:54:18;96824.75;;;3.74;86.91
77574;BME280;66710;48.868;9.080;2024-03-02T03:56:43;96827.72;;;3.66;87.96
77574;BME280;66710;48.868;9.080;2024-03-02T03:59:08;96830.31;;;3.55;89.14
77574;BME280;66710;48.868;9.080;2024-03-02T04:01:34;96830.22;;;3.61;88.90
77574;BME280;66710;48.868;9.080;2024-03-02T04:03:59;96818.34;;;3.64;88.92
77574;BME280;66710;48.868;9.080;2024-03-02T04:06:25;96824.78;;;3.86;88.59
77574;BME280;66710;48.868;9.080;2024-03-02T04:08:50;96818.59;;;4.04;87.92
77574;BME280;66710;48.868;9.080;2024-03-02T04:11:15;96826.94;;;4.19;87.56
77574;BME280;66710;48.868;9.080;2024-03-02T04:13:41;96833.97;;;4.14;87.53
77574;BME280;66710;48.868;9.080;2024-03-02T04:16:06;96835.75;;;4.32;87.15
77574;BME280;66710;48.868;9.080;2024-03-02T04:18:31;96831.34;;;4.25;87.12
77574;BME280;66710;48.868;9.080;2024-03-02T04:21:00;96828.69;;;4.37;86.77
77574;BME280;66710;48.868;9.080;2024-03-02T04:23:26;96823.38;;;4.37;86.27
77574;BME280;66710;48.868;9.080;2024-03-02T04:25:51;96825.03;;;4.38;86.87
77574;BME280;66710;48.868;9.080;2024-03-02T04:28:16;96833.00;;;4.38;86.50
77574;BME280;66710;48.868;9.080;2024-03-02T04:30:42;96833.00;;;4.38;86.43
77574;BME280;66710;48.868;9.080;2024-03-02T04:33:07;96832.97;;;4.26;86.84
77574;BME280;66710;48.868;9.080;2024-03-02T04:35:37;96836.56;;;4.20;87.30
77574;BME280;66710;48.868;9.080;2024-03-02T04:38:02;96836.44;;;4.27;86.90
77574;BME280;66710;48.868;9.080;2024-03-02T04:40:28;96828.69;;;4.25;86.63
77574;BME280;66710;48.868;9.080;2024-03-02T04:42:53;96831.00;;;4.22;86.80
77574;BME280;66710;48.868;9.080;2024-03-02T04:45:19;96827.44;;;4.40;86.16
77574;BME280;66710;48.868;9.080;2024-03-02T04:47:44;96829.41;;;4.33;86.55
77574;BME280;66710;48.868;9.080;2024-03-02T04:50:09;96821.75;;;4.36;86.21
77574;BME280;66710;48.868;9.080;2024-03-02T04:52:35;96825.72;;;4.45;86.50
77574;BME280;66710;48.868;9.080;2024-03-02T04:55:00;96825.03;;;4.38;86.25
77574;BME280;66710;48.868;9.080;2024-03-02T04:57:50;96838.06;;;4.28;86.68
77574;BME280;66710;48.868;9.080;2024-03-02T05:00:16;96826.84;;;4.26;86.63
77574;BME280;66710;48.868;9.080;2024-03-02T05:02:42;96829.63;;;4.31;86.40
77574;BME280;66710;48.868;9.080;2024-03-02T05:05:07;96840.63;;;4.35;86.35
77574;BME280;66710;48.868;9.080;2024-03-02T05:07:32;96833.41;;;4.23;87.05
77574;BME280;66710;48.868;9.080;2024-03-02T05:09:58;96838.13;;;4.10;87.40
77574;BME280;66710;48.868;9.080;2024-03-02T05:12:24;96828.81;;;3.89;87.78
77574;BME280;66710;48.868;9.080;2024-03-02T05:15:07;96822.31;;;3.73;88.36
77574;BME280;66710;48.868;9.080;2024-03-02T05:17:33;96827.03;;;3.71;88.14
77574;BME280;66710;48.868;9.080;2024-03-02T05:19:58;96824.84;;;3.68;88.56
77574;BME280;66710;48.868;9.080;2024-03-02T05:22:23;96827.34;;;3.63;89.09
77574;BME280;66710;48.868;9.080;2024-03-02T05:24:49;96824.13;;;3.61;88.83
77574;BME280;66710;48.868;9.080;2024-03-02T05:27:14;96832.75;;;3.56;88.47
77574;BME280;66710;48.868;9.080;2024-03-02T05:29:39;96833.88;;;3.48;88.84
77574;BME280;66710;48.868;9.080;2024-03-02T05:32:05;96834.22;;;3.52;88.75
77574;BME280;66710;48.868;9.080;2024-03-02T05:34:30;96839.31;;;3.54;88.38
77574;BME280;66710;48.868;9.080;2024-03-02T05:36:57;96840.25;;;3.59;88.55
77574;BME280;66710;48.868;9.080;2024-03-02T05:39:23;96837.69;;;3.53;89.21
77574;BME280;66710;48.868;9.080;2024-03-02T05:41:48;96847.25;;;3.54;88.84
77574;BME280;66710;48.868;9.080;2024-03-02T05:44:13;96842.19;;;3.52;89.33
77574;BME280;66710;48.868;9.080;2024-03-02T05:46:40;96838.50;;;3.53;88.67
77574;BME280;66710;48.868;9.080;2024-03-02T05:49:06;96846.69;;;3.52;88.98
77574;BME280;66710;48.868;9.080;2024-03-02T05:51:32;96838.22;;;3.43;89.52
77574;BME280;66710;48.868;9.080;2024-03-02T05:53:58;96851.78;;;3.35;89.26
77574;BME280;66710;48.868;9.080;2024-03-02T05:56:23;96858.44;;;3.26;89.53
77574;BME280;66710;48.868;9.080;2024-03-02T05:58:48;96856.13;;;3.29;89.13
77574;BME280;66710;48.868;9.080;2024-03-02T06:01:38;96848.97;;;3.30;89.76
77574;BME280;66710;48.868;9.080;2024-03-02T06:04:03;96846.47;;;3.35;89.65
77574;BME280;66710;48.868;9.080;2024-03-02T06:06:28;96847.97;;;3.31;90.00
77574;BME280;66710;48.868;9.080;2024-03-02T06:08:54;96851.44;;;3.31;89.66
77574;BME280;66710;48.868;9.080;2024-03-02T06:11:19;96847.75;;;3.32;89.45
77574;BME280;66710;48.868;9.080;2024-03-02T06:13:45;96852.66;;;3.47;89.19
77574;BME280;66710;48.868;9.080;2024-03-02T06:16:10;96844.50;;;3.48;89.10
77574;BME280;66710;48.868;9.080;2024-03-02T06:18:36;96842.66;;;3.49;89.08
77574;BME280;66710;48.868;9.080;2024-03-02T06:21:01;96843.66;;;3.66;88.83
77574;BME280;66710;48.868;9.080;2024-03-02T06:23:27;96841.81;;;3.97;87.73
77574;BME280;66710;48.868;9.080;2024-03-02T06:25:52;96845.03;;;3.99;86.99
77574;BME280;66710;48.868;9.080;2024-03-02T06:28:18;96844.50;;;4.09;87.21
77574;BME280;66710;48.868;9.080;2024-03-02T06:30:43;96856.88;;;4.15;86.62
77574;BME280;66710;48.868;9.080;2024-03-02T06:33:09;96856.00;;;3.91;87.38
77574;BME280;66710;48.868;9.080;2024-03-02T06:35:34;96865.88;;;3.84;87.90
77574;BME280;66710;48.868;9.080;2024-03-02T06:38:00;96862.13;;;3.91;87.88
77574;BME280;66710;48.868;9.080;2024-03-02T06:40:26;96864.97;;;3.90;87.84
77574;BME280;66710;48.868;9.080;2024-03-02T06:42:51;96869.31;;;4.02;86.86
77574;BME280;66710;48.868;9.080;2024-03-02T06:45:16;96865.16;;;4.07;87.38
77574;BME280;66710;48.868;9.080;2024-03-02T06:47:42;96862.31;;;4.32;86.25
77574;BME280;66710;48.868;9.080;2024-03-02T06:50:08;96873.09;;;4.37;86.09
77574;BME280;66710;48.868;9.080;2024-03-02T06:52:34;96874.97;;;4.48;85.96
77574;BME280;66710;48.868;9.080;2024-03-02T06:55:00;96880.31;;;4.60;85.33
77574;BME280;66710;48.868;9.080;2024-03-02T06:57:25;96871.63;;;4.64;85.22
77574;BME280;66710;48.868;9.080;2024-03-02T06:59:51;96870.25;;;4.73;84.62
77574;BME280;66710;48.868;9.080;2024-03-02T07:02:19;96870.84;;;4.75;84.83
77574;BME280;66710;48.868;9.080;2024-03-02T07:04:45;96872.59;;;4.81;84.89
77574;BME280;66710;48.868;9.080;2024-03-02T07:07:10;96866.91;;;4.90;84.51
77574;BME280;66710;48.868;9.080;2024-03-02T07:09:36;96875.13;;;5.00;83.76
77574;BME280;66710;48.868;9.080;2024-03-02T07:12:01;96869.63;;;5.42;82.40
77574;BME280;66710;48.868;9.080;2024-03-02T07:14:26;96872.34;;;5.70;81.20
77574;BME280;66710;48.868;9.080;2024-03-02T07:17:11;96868.63;;;5.71;81.62
77574;BME280;66710;48.868;9.080;2024-03-02T07:19:38;96877.28;;;5.78;81.36
77574;BME280;66710;48.868;9.080;2024-03-02T07:22:06;96869.84;;;5.80;80.53
77574;BME280;66710;48.868;9.080;2024-03-02T07:24:32;96885.50;;;5.88;80.60
77574;BME280;66710;48.868;9.080;2024-03-02T07:26:57;96879.16;;;5.78;81.02
77574;BME280;66710;48.868;9.080;2024-03-02T07:29:22;96874.78;;;5.72;80.84
77574;BME280;66710;48.868;9.080;2024-03-02T07:31:48;96879.31;;;5.59;81.14
77574;BME280;66710;48.868;9.080;2024-03-02T07:34:13;96886.75;;;5.46;82.66
77574;BME280;66710;48.868;9.080;2024-03-02T07:36:38;96878.66;;;5.52;81.67
77574;BME280;66710;48.868;9.080;2024-03-02T07:39:04;96888.44;;;5.63;81.92
77574;BME280;66710;48.868;9.080;2024-03-02T07:41:29;96890.31;;;5.51;82.54
77574;BME280;66710;48.868;9.080;2024-03-02T07:43:54;96889.63;;;5.56;82.04
77574;BME280;66710;48.868;9.080;2024-03-02T07:46:20;96883.97;;;5.52;82.27
77574;BME280;66710;48.868;9.080;2024-03-02T07:48:45;96895.31;;;5.59;82.22
77574;BME280;66710;48.868;9.080;2024-03-02T07:51:10;96880.25;;;5.65;81.57
77574;BME280;66710;48.868;9.080;2024-03-02T07:53:35;96891.84;;;5.59;81.66
77574;BME280;66710;48.868;9.080;2024-03-02T07:56:01;96891.84;;;5.59;81.86
77574;BME280;66710;48.868;9.080;2024-03-02T07:58:27;96891.34;;;5.62;81.34
77574;BME280;66710;48.868;9.080;2024-03-02T08:00:53;96891.94;;;5.64;81.27
77574;BME280;66710;48.868;9.080;2024-03-02T08:03:18;96894.44;;;5.82;81.12
77574;BME280;66710;48.868;9.080;2024-03-02T08:05:44;96901.84;;;5.80;80.58
77574;BME280;66710;48.868;9.080;2024-03-02T08:08:09;96890.16;;;5.70;81.24
77574;BME280;66710;48.868;9.080;2024-03-02T08:10:35;96900.78;;;5.81;80.96
77574;BME280;66710;48.868;9.080;2024-03-02T08:13:00;96899.97;;;6.83;79.13
77574;BME280;66710;48.868;9.080;2024-03-02T08:15:26;96898.25;;;6.77;78.17
77574;BME280;66710;48.868;9.080;2024-03-02T08:17:51;96896.16;;;6.96;77.63
77574;BME280;66710;48.868;9.080;2024-03-02T08:20:17;96891.22;;;7.05;77.26
77574;BME280;66710;48.868;9.080;2024-03-02T08:22:42;96897.03;;;7.02;77.10
77574;BME280;66710;48.868;9.080;2024-03-02T08:25:08;96881.41;;;7.27;75.96
77574;BME280;66710;48.868;9.080;2024-03-02T08:27:33;96889.38;;;7.88;74.39
77574;BME280;66710;48.868;9.080;2024-03-02T08:29:59;96888.31;;;8.65;72.37
77574;BME280;66710;48.868;9.080;2024-03-02T08:32:24;96890.13;;;8.91;69.80
77574;BME280;66710;48.868;9.080;2024-03-02T08:34:49;96880.78;;;8.99;70.24
77574;BME280;66710;48.868;9.080;2024-03-02T08:37:15;96885.47;;;8.81;69.95
77574;BME280;66710;48.868;9.080;2024-03-02T08:39:40;96879.56;;;9.17;68.11
77574;BME280;66710;48.868;9.080;2024-03-02T08:42:05;96877.22;;;8.83;69.19
77574;BME280;66710;48.868;9.080;2024-03-02T08:44:31;96882.44;;;8.68;70.20
77574;BME280;66710;48.868;9.080;2024-03-02T08:46:56;96883.34;;;9.21;68.99
77574;BME280;66710;48.868;9.080;2024-03-02T08:49:21;96871.94;;;8.98;68.83
77574;BME280;66710;48.868;9.080;2024-03-02T08:51:47;96876.72;;;9.86;66.77
77574;BME280;66710;48.868;9.080;2024-03-02T08:54:19;96886.63;;;9.85;65.31
77574;BME280;66710;48.868;9.080;2024-03-02T08:56:44;96878.88;;;9.94;64.38
77574;BME280;66710;48.868;9.080;2024-03-02T08:59:09;96877.97;;;11.02;62.51
77574;BME280;66710;48.868;9.080;2024-03-02T09:01:35;96879.59;;;10.52;62.51
77574;BME280;66710;48.868;9.080;2024-03-02T09:04:00;96883.88;;;10.58;61.81
77574;BME280;66710;48.868;9.080;2024-03-02T09:06:25;96878.25;;;10.44;63.69
77574;BME280;66710;48.868;9.080;2024-03-02T09:08:51;96877.69;;;11.09;61.28
77574;BME280;66710;48.868;9.080;2024-03-02T09:11:17;96882.44;;;11.58;60.51
77574;BME280;66710;48.868;9.080;2024-03-02T09:13:42;96886.69;;;11.84;58.13
77574;BME280;66710;48.868;9.080;2024-03-02T09:16:07;96886.38;;;12.40;56.59
77574;BME280;66710;48.868;9.080;2024-03-02T09:18:36;96890.34;;;12.03;57.55
77574;BME280;66710;48.868;9.080;2024-03-02T09:21:01;96883.56;;;12.16;57.81
77574;BME280;66710;48.868;9.080;2024-03-02T09:23:26;96886.69;;;12.33;55.06
77574;BME280;66710;48.868;9.080;2024-03-02T09:25:51;96883.91;;;13.22;53.71
77574;BME280;66710;48.868;9.080;2024-03-02T09:28:17;96884.09;;;12.63;53.42
77574;BME280;66710;48.868;9.080;2024-03-02T09:30:42;96882.88;;;12.45;55.89
77574;BME280;66710;48.868;9.080;2024-03-02T09:33:07;96873.31;;;13.79;52.51
77574;BME280;66710;48.868;9.080;2024-03-02T09:35:33;96871.59;;;13.88;52.71
77574;BME280;66710;48.868;9.080;2024-03-02T09:37:58;96878.13;;;13.00;53.11
77574;BME280;66710;48.868;9.080;2024-03-02T09:40:23;96872.09;;;13.66;50.75
77574;BME280;66710;48.868;9.080;2024-03-02T09:42:49;96868.88;;;12.77;53.64
77574;BME280;66710;48.868;9.080;2024-03-02T09:45:23;96867.91;;;13.55;52.67
77574;BME280;66710;48.868;9.080;2024-03-02T09:47:49;96868.25;;;14.15;49.16
77574;BME280;66710;48.868;9.080;2024-03-02T09:50:14;96864.69;;;14.38;49.22
77574;BME280;66710;48.868;9.080;2024-03-02T09:52:40;96857.34;;;13.58;49.97
77574;BME280;66710;48.868;9.080;2024-03-02T09:55:08;96850.25;;;13.44;50.61
77574;BME280;66710;48.868;9.080;2024-03-02T09:57:33;96854.72;;;13.77;51.12
77574;BME280;66710;48.868;9.080;2024-03-02T09:59:58;96858.56;;;14.33;50.14
77574;BME280;66710;48.868;9.080;2024-03-02T10:02:23;96855.31;;;14.55;49.53
77574;BME280;66710;48.868;9.080;2024-03-02T10:04:49;96857.25;;;14.68;48.08
77574;BME280;66710;48.868;9.080;2024-03-02T10:07:16;96848.94;;;14.45;48.62
77574;BME280;66710;48.868;9.080;2024-03-02T10:09:44;96857.47;;;13.72;48.51
77574;BME280;66710;48.868;9.080;2024-03-02T10:12:10;96848.22;;;14.40;47.83
77574;BME280;66710;48.868;9.080;2024-03-02T10:14:37;96853.53;;;14.45;48.83
77574;BME280;66710;48.868;9.080;2024-03-02T10:17:07;96847.31;;;14.07;48.26
77574;BME280;66710;48.868;9.080;2024-03-02T10:19:33;96850.75;;;14.12;48.68
77574;BME280;66710;48.868;9.080;2024-03-02T10:22:00;96850.38;;;14.19;48.25
77574;BME280;66710;48.868;9.080;2024-03-02T10:24:26;96851.31;;;14.85;46.80
77574;BME280;66710;48.868;9.080;2024-03-02T10:26:52;96844.25;;;14.32;47.40
77574;BME280;66710;48.868;9.080;2024-03-02T10:29:17;96836.91;;;14.89;46.40
77574;BME280;66710;48.868;9.080;2024-03-02T10:31:45;96834.97;;;15.09;45.53
77574;BME280;66710;48.868;9.080;2024-03-02T10:34:13;96832.34;;;14.71;45.22
77574;BME280;66710;48.868;9.080;2024-03-02T10:36:43;96835.75;;;13.82;47.47
77574;BME280;66710;48.868;9.080;2024-03-02T10:39:09;96830.59;;;14.42;46.09
77574;BME280;66710;48.868;9.080;2024-03-02T10:41:36;96832.94;;;14.11;47.14
77574;BME280;66710;48.868;9.080;2024-03-02T10:44:06;96837.84;;;14.66;47.83
77574;BME280;66710;48.868;9.080;2024-03-02T10:46:33;96833.88;;;14.02;49.14
77574;BME280;66710;48.868;9.080;2024-03-02T10:48:59;96818.94;;;14.80;44.45
77574;BME280;66710;48.868;9.080;2024-03-02T10:51:26;96817.31;;;14.46;45.81
77574;BME280;66710;48.868;9.080;2024-03-02T10:53:52;96814.38;;;15.54;44.37
77574;BME280;66710;48.868;9.080;2024-03-02T10:56:22;96809.84;;;15.49;44.72
77574;BME280;66710;48.868;9.080;2024-03-02T10:58:58;96809.19;;;15.71;44.58
77574;BME280;66710;48.868;9.080;2024-03-02T11:01:25;96809.94;;;15.31;42.94
77574;BME280;66710;48.868;9.080;2024-03-02T11:03:51;96800.81;;;15.82;44.00
77574;BME280;66710;48.868;9.080;2024-03-02T11:06:17;96805.66;;;15.85;42.58
77574;BME280;66710;48.868;9.080;2024-03-02T11:08:44;96812.25;;;15.23;43.77
77574;BME280;66710;48.868;9.080;2024-03-02T11:11:17;96803.72;;;15.44;44.45
77574;BME280;66710;48.868;9.080;2024-03-02T11:13:49;96797.91;;;15.50;45.83
77574;BME280;66710;48.868;9.080;2024-03-02T11:16:34;96792.78;;;14.75;44.55
77574;BME280;66710;48.868;9.080;2024-03-02T11:19:04;96781.78;;;15.45;44.72
77574;BME280;66710;48.868;9.080;2024-03-02T11:21:31;96780.72;;;14.54;45.12
77574;BME280;66710;48.868;9.080;2024-03-02T11:23:58;96771.22;;;15.03;44.88
77574;BME280;66710;48.868;9.080;2024-03-02T11:26:23;96775.38;;;14.81;44.69
77574;BME280;66710;48.868;9.080;2024-03-02T11:28:49;96773.44;;;15.28;45.88
77574;BME280;66710;48.868;9.080;2024-03-02T11:31:14;96773.47;;;15.42;45.73
77574;BME280;66710;48.868;9.080;2024-03-02T11:33:40;96767.03;;;15.38;45.63
77574;BME280;66710;48.868;9.080;2024-03-02T11:36:08;96762.44;;;16.16;44.04
77574;BME280;66710;48.868;9.080;2024-03-02T11:38:35;96759.13;;;15.55;44.50
77574;BME280;66710;48.868;9.080;2024-03-02T11:41:02;96753.19;;;15.53;44.83
77574;BME280;66710;48.868;9.080;2024-03-02T11:43:29;96752.56;;;15.97;44.66
77574;BME280;66710;48.868;9.080;2024-03-02T11:46:01;96743.53;;;15.88;44.08
77574;BME280;66710;48.868;9.080;2024-03-02T11:48:32;96752.22;;;16.57;44.67
77574;BME280;66710;48.868;9.080;2024-03-02T11:50:58;96748.81;;;16.29;43.79
77574;BME280;66710;48.868;9.080;2024-03-02T11:53:26;96745.13;;;16.03;44.85
77574;BME280;66710;48.868;9.080;2024-03-02T11:55:55;96733.66;;;16.06;44.74
77574;BME280;66710;48.868;9.080;2024-03-02T11:58:20;96723.34;;;15.17;44.32
77574;BME280;66710;48.868;9.080;2024-03-02T12:00:51;96730.72;;;15.52;42.45
77574;BME280;66710;48.868;9.080;2024-03-02T12:03:16;96724.94;;;15.45;41.76
77574;BME280;66710;48.868;9.080;2024-03-02T12:05:42;96720.09;;;15.84;42.23
77574;BME280;66710;48.868;9.080;2024-03-02T12:08:07;96714.78;;;15.78;42.81
77574;BME280;66710;48.868;9.080;2024-03-02T12:10:34;96707.72;;;16.36;41.59
77574;BME280;66710;48.868;9.080;2024-03-02T12:13:01;96706.88;;;15.68;41.72
77574;BME280;66710;48.868;9.080;2024-03-02T12:15:28;96706.41;;;15.66;41.52
77574;BME280;66710;48.868;9.080;2024-03-02T12:17:55;96696.84;;;15.55;39.96
77574;BME280;66710;48.868;9.080;2024-03-02T12:20:21;96706.00;;;16.18;39.64
77574;BME280;66710;48.868;9.080;2024-03-02T12:22:49;96707.13;;;16.17;39.83
77574;BME280;66710;48.868;9.080;2024-03-02T12:25:15;96700.69;;;16.57;40.04
77574;BME280;66710;48.868;9.080;2024-03-02T12:27:41;96695.72;;;17.13;38.80
77574;BME280;66710;48.868;9.080;2024-03-02T12:30:07;96706.38;;;16.47;39.62
77574;BME280;66710;48.868;9.080;2024-03-02T12:32:36;96694.38;;;16.17;38.49
77574;BME280;66710;48.868;9.080;2024-03-02T12:35:04;96689.06;;;16.35;38.44
77574;BME280;66710;48.868;9.080;2024-03-02T12:37:29;96681.34;;;17.04;37.23
77574;BME280;66710;48.868;9.080;2024-03-02T12:39:55;96686.63;;;16.78;37.63
77574;BME280;66710;48.868;9.080;2024-03-02T12:42:20;96684.00;;;16.95;37.83
77574;BME280;66710;48.868;9.080;2024-03-02T12:44:46;96683.53;;;16.17;37.75
77574;BME280;66710;48.868;9.080;2024-03-02T12:47:11;96681.38;;;16.28;37.92
77574;BME280;66710;48.868;9.080;2024-03-02T12:49:40;96680.28;;;17.31;37.55
77574;BME280;66710;48.868;9.080;2024-03-02T12:52:05;96684.06;;;17.21;37.43
77574;BME280;66710;48.868;9.080;2024-03-02T12:54:32;96677.63;;;16.69;38.28
77574;BME280;66710;48.868;9.080;2024-03-02T12:56:58;96678.63;;;17.12;37.01
77574;BME280;66710;48.868;9.080;2024-03-02T12:59:24;96681.75;;;16.35;37.27
77574;BME280;66710;48.868;9.080;2024-03-02T13:01:55;96673.44;;;17.33;35.90
77574;BME280;66710;48.868;9.080;2024-03-02T13:04:24;96663.56;;;17.55;36.04